Time;durP1;ratioP1;P1;durP2;ratioP2;P2;SDS_P1;SDS_P2;PMS_P1;PMS_P2;Temp;Humidity;BMP_temperature;BMP_pressure;BME280_temperature;BME280_humidity;BME280_pressure;Samples;Min_cycle;Max_cycle;Signal;HPM_P1;HPM_P2
2023/07/25 00:00:25;;;;;;;9.48;3.70;;;12.00;99.90;;;;;;5087007;27;20046;-83
2023/07/25 00:02:51;;;;;;;8.55;3.95;;;12.00;99.90;;;;;;5090319;27;20546;-83
2023/07/25 00:05:16;;;;;;;7.38;4.22;;;12.00;99.90;;;;;;5113670;27;20041;-82
2023/07/25 00:07:42;;;;;;;7.30;4.53;;;12.00;99.90;;;;;;5106158;27;20618;-84
2023/07/25 00:10:08;;;;;;;8.93;3.67;;;12.00;99.90;;;;;;5095250;27;20046;-83
2023/07/25 00:12:35;;;;;;;6.03;3.58;;;12.00;99.90;;;;;;5103935;27;20125;-83
2023/07/25 00:15:02;;;;;;;7.65;3.92;;;12.00;99.90;;;;;;5108484;27;20431;-83
2023/07/25 00:17:28;;;;;;;9.35;4.18;;;12.00;99.90;;;;;;5090455;27;20127;-83
2023/07/25 00:19:54;;;;;;;7.38;3.78;;;11.90;99.90;;;;;;5114033;27;20438;-83
2023/07/25 00:22:22;;;;;;;8.48;3.55;;;11.90;99.90;;;;;;5096830;27;20043;-83
2023/07/25 00:24:48;;;;;;;8.32;3.90;;;11.90;99.90;;;;;;5121540;27;20650;-83
2023/07/25 00:27:13;;;;;;;7.38;3.67;;;11.90;99.90;;;;;;5096741;27;20077;-83
2023/07/25 00:29:39;;;;;;;11.90;4.10;;;11.90;99.90;;;;;;5087606;27;20046;-82
2023/07/25 00:32:05;;;;;;;8.32;3.80;;;11.80;99.90;;;;;;5096140;27;20038;-83
2023/07/25 00:34:36;;;;;;;12.32;4.25;;;11.90;99.90;;;;;;5100259;27;20043;-82
2023/07/25 00:37:02;;;;;;;10.75;3.40;;;11.80;99.90;;;;;;5107559;27;20039;-82
2023/07/25 00:39:34;;;;;;;7.60;3.70;;;11.80;99.90;;;;;;5116148;27;20533;-83
2023/07/25 00:41:59;;;;;;;7.82;4.00;;;11.80;99.90;;;;;;5082862;27;20035;-83
2023/07/25 00:44:25;;;;;;;6.28;3.90;;;11.90;99.90;;;;;;5088137;27;20390;-82
2023/07/25 00:46:51;;;;;;;11.35;4.05;;;11.90;99.90;;;;;;5095836;27;20450;-83
2023/07/25 00:49:17;;;;;;;8.35;4.10;;;11.80;99.90;;;;;;5086999;27;20122;-83
2023/07/25 00:51:42;;;;;;;8.45;3.50;;;11.80;99.90;;;;;;5129155;27;20051;-83
2023/07/25 00:54:08;;;;;;;7.18;4.00;;;11.80;99.90;;;;;;5087756;27;20337;-83
2023/07/25 00:56:34;;;;;;;9.05;3.78;;;11.70;99.90;;;;;;5099775;27;20046;-82
2023/07/25 00:59:00;;;;;;;10.43;3.90;;;11.70;99.90;;;;;;5132004;27;20031;-83
2023/07/25 01:01:25;;;;;;;7.03;3.75;;;11.70;99.90;;;;;;5101288;27;20097;-82
2023/07/25 01:03:55;;;;;;;11.93;4.10;;;11.70;99.90;;;;;;5095045;27;20588;-82
2023/07/25 01:06:21;;;;;;;9.98;4.15;;;11.80;99.90;;;;;;5106738;27;20125;-82
2023/07/25 01:08:52;;;;;;;8.45;3.45;;;11.80;99.90;;;;;;5084396;27;20114;-83
2023/07/25 01:11:19;;;;;;;9.20;3.92;;;11.80;99.90;;;;;;5128541;27;20047;-82
2023/07/25 01:13:45;;;;;;;6.75;3.95;;;11.80;99.90;;;;;;5092129;27;20490;-83
2023/07/25 01:16:16;;;;;;;11.02;3.90;;;11.80;99.90;;;;;;5131192;27;20048;-83
2023/07/25 01:18:43;;;;;;;10.85;4.00;;;11.80;99.90;;;;;;5109348;27;20031;-83
2023/07/25 01:21:09;;;;;;;11.95;4.13;;;11.70;99.90;;;;;;5107939;27;20043;-82
2023/07/25 01:23:36;;;;;;;7.93;4.35;;;11.80;99.90;;;;;;5089567;27;20062;-83
2023/07/25 01:26:02;;;;;;;10.30;4.45;;;11.80;99.90;;;;;;5109490;27;20385;-83
2023/07/25 01:28:28;;;;;;;10.82;4.30;;;11.80;99.90;;;;;;5107299;27;20036;-83
2023/07/25 01:30:54;;;;;;;12.27;4.40;;;11.90;99.90;;;;;;5089505;27;20114;-82
2023/07/25 01:33:19;;;;;;;6.60;4.05;;;11.90;99.90;;;;;;5116752;27;20067;-83
2023/07/25 01:35:45;;;;;;;10.07;3.80;;;12.00;99.90;;;;;;5131326;27;20039;-83
2023/07/25 01:38:10;;;;;;;8.57;4.18;;;11.90;99.90;;;;;;5102528;27;20038;-83
2023/07/25 01:40:39;;;;;;;10.93;3.83;;;12.00;99.90;;;;;;5105821;27;20118;-82
2023/07/25 01:43:05;;;;;;;8.70;4.05;;;12.10;99.90;;;;;;5085060;27;20047;-83
2023/07/25 01:45:31;;;;;;;13.57;4.40;;;12.10;99.90;;;;;;5102968;27;20031;-83
2023/07/25 01:47:57;;;;;;;10.13;4.13;;;12.20;99.90;;;;;;5116937;27;20108;-83
2023/07/25 01:50:22;;;;;;;8.02;4.07;;;12.20;99.90;;;;;;5108864;27;20568;-83
2023/07/25 01:52:48;;;;;;;10.50;4.00;;;12.30;99.90;;;;;;5097999;27;20060;-82
2023/07/25 01:55:14;;;;;;;9.68;3.88;;;12.40;99.90;;;;;;5102896;27;20077;-83
2023/07/25 01:57:39;;;;;;;10.75;4.63;;;12.40;99.90;;;;;;5111657;27;20066;-83
2023/07/25 02:00:06;;;;;;;9.25;4.43;;;12.50;99.90;;;;;;5088636;27;20151;-83
2023/07/25 02:02:34;;;;;;;10.07;3.78;;;12.50;99.90;;;;;;5119146;27;20362;-83
2023/07/25 02:05:03;;;;;;;10.43;4.20;;;12.60;99.90;;;;;;5088254;27;20099;-82
2023/07/25 02:07:29;;;;;;;7.80;4.20;;;12.60;99.90;;;;;;5096032;27;20204;-83
2023/07/25 02:09:55;;;;;;;8.05;3.97;;;12.70;99.90;;;;;;5084630;27;20035;-82
2023/07/25 02:12:20;;;;;;;7.45;3.58;;;12.70;99.90;;;;;;5111485;27;20078;-82
2023/07/25 02:14:46;;;;;;;10.73;3.78;;;12.70;99.90;;;;;;5098940;27;20058;-83
2023/07/25 02:17:12;;;;;;;8.93;3.78;;;12.70;99.90;;;;;;5099762;27;20035;-83
2023/07/25 02:19:38;;;;;;;8.90;3.70;;;12.70;99.90;;;;;;5092221;27;20053;-82
2023/07/25 02:22:07;;;;;;;8.35;3.78;;;12.70;99.90;;;;;;5086779;27;20231;-83
2023/07/25 02:24:33;;;;;;;6.88;3.92;;;12.70;99.90;;;;;;5102403;27;20115;-83
2023/07/25 02:26:58;;;;;;;7.53;3.50;;;12.70;99.90;;;;;;5127032;27;20031;-83
2023/07/25 02:29:24;;;;;;;8.02;3.65;;;12.80;99.90;;;;;;5093410;27;20035;-83
2023/07/25 02:31:50;;;;;;;9.68;4.00;;;12.70;99.90;;;;;;5123473;27;20453;-83
2023/07/25 02:34:16;;;;;;;8.25;3.90;;;12.70;99.90;;;;;;5098128;27;20046;-83
2023/07/25 02:36:42;;;;;;;8.13;3.70;;;12.70;99.90;;;;;;5089994;27;20083;-83
2023/07/25 02:39:08;;;;;;;9.13;3.60;;;12.70;99.90;;;;;;5085871;27;20110;-83
2023/07/25 02:41:34;;;;;;;6.55;3.25;;;12.70;99.90;;;;;;5096230;27;20031;-83
2023/07/25 02:44:00;;;;;;;7.55;3.33;;;12.60;99.90;;;;;;5103365;27;20051;-82
2023/07/25 02:46:26;;;;;;;9.02;3.45;;;12.60;99.90;;;;;;5110854;27;20053;-83
2023/07/25 02:48:52;;;;;;;7.38;3.80;;;12.60;99.90;;;;;;5093333;27;20087;-83
2023/07/25 02:51:17;;;;;;;8.02;3.53;;;12.70;99.90;;;;;;5097726;27;20134;-83
2023/07/25 02:53:46;;;;;;;9.98;3.63;;;12.60;99.90;;;;;;5095318;27;20035;-83
2023/07/25 02:56:12;;;;;;;6.32;3.92;;;12.60;99.90;;;;;;5133050;27;20117;-84
2023/07/25 02:58:38;;;;;;;13.30;4.25;;;12.60;99.90;;;;;;5090939;27;20113;-84
2023/07/25 03:01:03;;;;;;;10.88;3.72;;;12.70;99.90;;;;;;5088506;27;20066;-83
2023/07/25 03:03:29;;;;;;;9.80;3.60;;;12.70;99.90;;;;;;5100131;27;20260;-83
2023/07/25 03:05:55;;;;;;;10.43;4.00;;;12.70;99.90;;;;;;5103923;27;20102;-83
2023/07/25 03:08:21;;;;;;;6.57;3.42;;;12.70;99.90;;;;;;5080618;27;20134;-83
2023/07/25 03:10:47;;;;;;;10.07;3.78;;;12.80;99.90;;;;;;5092304;27;20108;-84
2023/07/25 03:13:12;;;;;;;7.07;3.63;;;12.80;99.90;;;;;;5120090;27;20643;-83
2023/07/25 03:15:38;;;;;;;6.00;3.30;;;12.80;99.90;;;;;;5100486;27;20194;-84
2023/07/25 03:18:04;;;;;;;11.80;3.55;;;12.80;99.90;;;;;;5090102;27;20131;-83
2023/07/25 03:20:30;;;;;;;9.43;3.50;;;12.80;99.90;;;;;;5108097;27;20463;-83
2023/07/25 03:22:55;;;;;;;11.48;3.45;;;12.90;99.90;;;;;;5121713;27;20126;-84
2023/07/25 03:25:21;;;;;;;11.65;3.60;;;12.90;99.90;;;;;;5085584;27;20490;-83
2023/07/25 03:27:47;;;;;;;9.40;3.50;;;12.90;99.90;;;;;;5092134;27;20151;-84
2023/07/25 03:30:12;;;;;;;8.70;3.80;;;12.90;99.90;;;;;;5114843;27;20050;-83
2023/07/25 03:32:38;;;;;;;7.82;3.28;;;13.00;99.90;;;;;;5113784;27;20165;-83
2023/07/25 03:35:05;;;;;;;9.20;3.92;;;13.00;99.90;;;;;;5087421;27;20502;-83
2023/07/25 03:37:30;;;;;;;7.85;3.80;;;13.00;99.90;;;;;;5096169;27;20396;-83
2023/07/25 03:39:56;;;;;;;10.38;3.50;;;13.10;99.90;;;;;;5109694;27;20111;-84
2023/07/25 03:42:22;;;;;;;7.90;3.13;;;13.10;99.90;;;;;;5100617;27;20047;-84
2023/07/25 03:44:47;;;;;;;8.80;3.53;;;13.20;99.90;;;;;;5114175;27;20052;-83
2023/07/25 03:47:13;;;;;;;18.17;3.47;;;13.20;99.90;;;;;;5086711;27;20039;-83
2023/07/25 03:49:39;;;;;;;6.18;3.58;;;13.20;99.90;;;;;;5093469;27;20049;-83
2023/07/25 03:52:05;;;;;;;9.38;3.60;;;13.30;99.90;;;;;;5110167;27;20046;-83
2023/07/25 03:54:33;;;;;;;10.32;3.85;;;13.30;99.90;;;;;;5108689;27;20088;-83
2023/07/25 03:57:01;;;;;;;8.52;3.53;;;13.20;99.90;;;;;;5085634;28;20659;-83
2023/07/25 03:59:27;;;;;;;8.43;3.67;;;13.20;99.90;;;;;;5105428;27;20051;-83
2023/07/25 04:01:52;;;;;;;7.93;3.92;;;13.20;99.90;;;;;;5102437;27;21181;-83
2023/07/25 04:04:18;;;;;;;6.55;3.13;;;13.20;99.90;;;;;;5105478;27;20454;-83
2023/07/25 04:06:43;;;;;;;8.95;3.42;;;13.10;99.90;;;;;;5102847;27;20084;-83
2023/07/25 04:09:09;;;;;;;6.95;3.50;;;13.10;99.90;;;;;;5093826;27;20034;-83
2023/07/25 04:11:38;;;;;;;7.85;3.33;;;13.10;99.90;;;;;;5131848;27;20061;-83
2023/07/25 04:14:03;;;;;;;9.85;3.47;;;13.00;99.90;;;;;;5105939;27;20413;-83
2023/07/25 04:16:29;;;;;;;11.68;3.30;;;13.00;99.90;;;;;;5088801;27;20039;-83
2023/07/25 04:18:55;;;;;;;10.85;3.22;;;13.00;99.90;;;;;;5120751;27;20043;-83
2023/07/25 04:21:20;;;;;;;7.85;3.30;;;12.90;99.90;;;;;;5124587;27;20047;-83
2023/07/25 04:23:46;;;;;;;8.68;3.72;;;12.90;99.90;;;;;;5087504;27;20042;-83
2023/07/25 04:26:12;;;;;;;7.38;3.28;;;12.90;99.90;;;;;;5096557;27;20078;-83
2023/07/25 04:28:37;;;;;;;8.88;3.40;;;12.90;99.90;;;;;;5106192;27;20043;-83
2023/07/25 04:31:03;;;;;;;7.88;3.03;;;13.00;99.90;;;;;;5108219;27;20034;-83
2023/07/25 04:33:29;;;;;;;12.27;3.47;;;13.00;99.90;;;;;;5110055;27;20039;-83
2023/07/25 04:35:55;;;;;;;7.32;3.50;;;13.00;99.90;;;;;;5090631;27;20534;-84
2023/07/25 04:38:20;;;;;;;8.15;3.33;;;13.00;99.90;;;;;;5103539;27;20053;-83
2023/07/25 04:40:46;;;;;;;8.20;3.30;;;13.00;99.90;;;;;;5109038;27;20253;-84
2023/07/25 04:43:12;;;;;;;7.05;3.50;;;13.00;99.90;;;;;;5097306;27;20054;-83
2023/07/25 04:45:38;;;;;;;8.05;3.67;;;13.00;99.90;;;;;;5087922;27;20078;-84
2023/07/25 04:48:04;;;;;;;8.88;3.40;;;13.00;99.90;;;;;;5119956;27;20074;-84
2023/07/25 04:50:30;;;;;;;7.82;3.65;;;13.00;99.90;;;;;;5104021;27;20046;-83
2023/07/25 04:52:58;;;;;;;7.47;4.07;;;13.00;99.90;;;;;;5115476;27;20034;-83
2023/07/25 04:55:24;;;;;;;8.23;3.42;;;12.90;99.90;;;;;;5126800;27;20054;-83
2023/07/25 04:57:50;;;;;;;7.95;3.35;;;12.90;99.90;;;;;;5111238;27;20061;-83
2023/07/25 05:00:16;;;;;;;7.57;3.53;;;12.90;99.90;;;;;;5086430;27;20107;-83
2023/07/25 05:02:42;;;;;;;7.97;3.13;;;12.90;99.90;;;;;;5101982;27;20413;-83
2023/07/25 05:05:07;;;;;;;10.38;4.10;;;12.90;99.90;;;;;;5095328;27;20051;-84
2023/07/25 05:07:36;;;;;;;9.73;3.80;;;12.90;99.90;;;;;;5094463;27;20194;-84
2023/07/25 05:10:02;;;;;;;8.02;3.20;;;12.90;99.90;;;;;;5122317;27;20039;-83
2023/07/25 05:12:27;;;;;;;4.82;2.97;;;12.80;99.90;;;;;;5094290;27;20039;-84
2023/07/25 05:14:53;;;;;;;10.25;3.72;;;12.90;99.90;;;;;;5106479;27;20152;-83
2023/07/25 05:17:19;;;;;;;7.00;3.50;;;13.00;99.90;;;;;;5101064;27;20394;-83
2023/07/25 05:19:44;;;;;;;9.68;3.45;;;13.00;99.90;;;;;;5104790;27;20045;-84
2023/07/25 05:22:10;;;;;;;7.10;3.05;;;13.00;99.90;;;;;;5107820;27;20171;-83
2023/07/25 05:24:35;;;;;;;7.07;3.35;;;13.10;99.90;;;;;;5091271;27;20038;-83
2023/07/25 05:27:01;;;;;;;5.28;3.13;;;13.20;99.90;;;;;;5093453;27;20035;-83
2023/07/25 05:29:27;;;;;;;8.57;3.03;;;13.20;99.90;;;;;;5087147;27;20066;-84
2023/07/25 05:31:53;;;;;;;12.13;3.83;;;13.30;99.90;;;;;;5109198;27;20052;-83
2023/07/25 05:34:18;;;;;;;10.93;3.00;;;13.40;99.90;;;;;;5106926;27;20508;-83
2023/07/25 05:36:44;;;;;;;6.38;3.00;;;13.50;99.90;;;;;;5094508;27;20053;-83
2023/07/25 05:39:10;;;;;;;8.05;3.13;;;13.50;99.90;;;;;;5087941;27;20494;-83
2023/07/25 05:41:37;;;;;;;5.28;2.80;;;13.50;99.90;;;;;;5087763;27;20474;-83
2023/07/25 05:44:03;;;;;;;9.27;3.28;;;13.60;99.90;;;;;;5117524;27;20051;-83
2023/07/25 05:46:29;;;;;;;7.60;3.05;;;13.60;99.90;;;;;;5103016;27;20112;-83
2023/07/25 05:48:54;;;;;;;7.72;3.10;;;13.60;99.90;;;;;;5085805;27;20084;-83
2023/07/25 05:51:20;;;;;;;4.93;2.45;;;13.70;99.90;;;;;;5096715;27;20072;-83
2023/07/25 05:53:46;;;;;;;6.45;2.65;;;13.80;99.90;;;;;;5113985;27;20118;-83
2023/07/25 05:56:11;;;;;;;7.03;2.28;;;14.00;99.90;;;;;;5094002;27;20485;-83
2023/07/25 05:58:37;;;;;;;5.95;2.53;;;14.00;99.90;;;;;;5104584;27;20107;-83
2023/07/25 06:01:02;;;;;;;9.45;2.72;;;14.10;99.90;;;;;;5091694;27;20074;-83
2023/07/25 06:03:28;;;;;;;7.30;2.58;;;14.30;99.90;;;;;;5107200;27;20031;-83
2023/07/25 06:05:53;;;;;;;6.00;2.80;;;14.40;99.90;;;;;;5132124;27;20035;-83
2023/07/25 06:08:19;;;;;;;9.00;3.13;;;14.50;99.90;;;;;;5110814;27;20039;-83
2023/07/25 06:10:45;;;;;;;4.28;2.45;;;14.70;99.90;;;;;;5096113;27;20458;-83
2023/07/25 06:13:10;;;;;;;6.05;2.30;;;14.70;99.90;;;;;;5105816;27;20058;-83
2023/07/25 06:15:36;;;;;;;5.72;2.30;;;14.80;99.90;;;;;;5100486;27;20219;-83
2023/07/25 06:18:02;;;;;;;6.38;2.17;;;14.80;99.90;;;;;;5083142;27;20031;-83
2023/07/25 06:20:28;;;;;;;5.47;2.30;;;14.90;99.90;;;;;;5126286;27;20595;-83
2023/07/25 06:22:54;;;;;;;5.35;2.00;;;15.00;99.90;;;;;;5082515;27;20039;-82
2023/07/25 06:25:20;;;;;;;6.15;1.70;;;15.00;99.90;;;;;;5093975;27;20443;-83
2023/07/25 06:27:45;;;;;;;7.63;2.05;;;15.10;99.90;;;;;;5111922;27;20129;-83
2023/07/25 06:30:11;;;;;;;3.75;1.80;;;15.10;99.90;;;;;;5096945;27;20244;-83
2023/07/25 06:32:39;;;;;;;5.03;1.60;;;15.20;99.90;;;;;;5101816;27;20047;-83
2023/07/25 06:35:05;;;;;;;7.57;2.22;;;15.20;99.90;;;;;;5129263;27;20126;-83
2023/07/25 06:37:36;;;;;;;4.20;1.70;;;15.30;99.90;;;;;;5084237;27;20118;-83
2023/07/25 06:40:02;;;;;;;3.65;1.50;;;15.30;99.90;;;;;;5100135;27;20095;-83
2023/07/25 06:42:28;;;;;;;4.05;1.20;;;15.40;99.90;;;;;;5108104;27;20411;-83
2023/07/25 06:44:58;;;;;;;5.40;1.35;;;15.40;99.90;;;;;;5090694;27;20078;-83
2023/07/25 06:47:23;;;;;;;7.65;1.63;;;15.40;99.90;;;;;;5098115;27;20446;-84
2023/07/25 06:49:49;;;;;;;5.35;1.40;;;15.60;99.90;;;;;;5110407;27;20187;-83
2023/07/25 06:52:15;;;;;;;7.22;1.50;;;15.70;99.90;;;;;;5086852;27;20315;-83
2023/07/25 06:54:42;;;;;;;3.47;1.23;;;15.60;99.90;;;;;;5097382;27;20375;-83
2023/07/25 06:57:08;;;;;;;4.90;1.25;;;15.60;99.90;;;;;;5108627;27;20534;-83
2023/07/25 06:59:33;;;;;;;5.32;1.00;;;15.80;99.90;;;;;;5080159;27;20113;-83
2023/07/25 07:02:02;;;;;;;4.07;1.00;;;15.80;99.90;;;;;;5083266;27;20437;-83
2023/07/25 07:04:28;;;;;;;4.53;0.90;;;15.90;99.90;;;;;;5101710;27;20047;-82
2023/07/25 07:06:54;;;;;;;4.25;1.80;;;15.80;99.90;;;;;;5112321;27;20046;-83
2023/07/25 07:09:19;;;;;;;1.75;0.77;;;15.90;99.90;;;;;;5085666;27;20094;-83
2023/07/25 07:11:45;;;;;;;6.47;1.10;;;15.90;99.90;;;;;;5106604;27;20045;-82
2023/07/25 07:14:11;;;;;;;2.33;0.98;;;15.80;99.90;;;;;;5107428;27;20032;-83
2023/07/25 07:16:36;;;;;;;4.10;0.93;;;15.80;99.90;;;;;;5104923;27;20090;-82
2023/07/25 07:19:02;;;;;;;7.63;0.90;;;15.90;99.90;;;;;;5107799;27;20231;-83
2023/07/25 07:21:28;;;;;;;2.67;0.90;;;16.10;99.90;;;;;;5105059;27;20042;-83
2023/07/25 07:23:53;;;;;;;1.58;0.80;;;16.10;99.90;;;;;;5106318;27;20074;-83
2023/07/25 07:26:19;;;;;;;3.95;0.80;;;16.10;99.90;;;;;;5091014;27;20472;-83
2023/07/25 07:28:45;;;;;;;1.75;0.60;;;16.10;99.90;;;;;;5094646;27;20126;-83
2023/07/25 07:31:12;;;;;;;3.70;0.95;;;16.00;99.90;;;;;;5088105;27;20093;-83
2023/07/25 07:33:38;;;;;;;2.40;0.60;;;16.20;99.90;;;;;;5090799;27;20544;-83
2023/07/25 07:36:05;;;;;;;4.15;1.67;;;16.20;99.90;;;;;;5089394;27;20040;-83
2023/07/25 07:38:35;;;;;;;2.88;0.70;;;16.30;99.90;;;;;;5094635;27;20489;-83
2023/07/25 07:41:00;;;;;;;4.03;0.73;;;16.40;99.90;;;;;;5091830;27;20035;-83
2023/07/25 07:43:26;;;;;;;4.32;1.35;;;16.40;99.90;;;;;;5105845;27;20043;-83
2023/07/25 07:45:51;;;;;;;2.92;0.65;;;16.40;99.90;;;;;;5090671;27;20545;-83
2023/07/25 07:48:17;;;;;;;5.60;0.85;;;16.50;99.90;;;;;;5126024;27;20123;-83
2023/07/25 07:50:52;;;;;;;2.80;0.95;;;16.60;99.90;;;;;;5121887;27;20514;-83
2023/07/25 07:53:17;;;;;;;2.67;0.85;;;16.60;99.90;;;;;;5114081;27;20122;-82
2023/07/25 07:55:43;;;;;;;3.05;0.82;;;16.90;99.90;;;;;;5107097;27;20522;-83
2023/07/25 07:58:09;;;;;;;2.80;0.68;;;17.10;99.90;;;;;;5109933;27;20043;-83
2023/07/25 08:00:35;;;;;;;3.00;0.90;;;17.40;99.90;;;;;;5110264;27;20030;-83
2023/07/25 08:03:00;;;;;;;2.78;0.77;;;17.00;99.90;;;;;;5105584;27;20039;-83
2023/07/25 08:05:26;;;;;;;4.25;0.77;;;17.20;99.90;;;;;;5100864;27;20142;-83
2023/07/25 08:07:54;;;;;;;1.00;0.50;;;17.10;99.90;;;;;;5092413;27;20039;-84
2023/07/25 08:10:21;;;;;;;3.13;0.80;;;17.40;99.90;;;;;;5103338;27;20091;-83
2023/07/25 08:12:47;;;;;;;3.83;0.93;;;17.20;99.90;;;;;;5093431;27;20436;-83
2023/07/25 08:15:13;;;;;;;5.05;0.70;;;16.80;99.90;;;;;;5105285;27;20039;-83
2023/07/25 08:17:38;;;;;;;1.65;0.60;;;17.20;99.90;;;;;;5112677;27;20062;-83
2023/07/25 08:20:05;;;;;;;5.57;0.88;;;17.30;99.90;;;;;;5106954;27;20540;-83
2023/07/25 08:22:31;;;;;;;3.60;1.02;;;17.00;99.90;;;;;;5112075;27;20035;-82
2023/07/25 08:24:57;;;;;;;2.58;0.70;;;16.70;99.90;;;;;;5112589;27;20034;-82
2023/07/25 08:27:23;;;;;;;3.80;0.73;;;16.50;99.90;;;;;;5094411;27;20042;-82
2023/07/25 08:29:49;;;;;;;2.83;1.05;;;16.50;99.90;;;;;;5095605;27;20091;-82
2023/07/25 08:32:14;;;;;;;1.05;0.60;;;16.70;99.90;;;;;;5133496;27;20125;-83
2023/07/25 08:34:40;;;;;;;3.30;0.85;;;16.90;99.90;;;;;;5104493;27;20454;-82
2023/07/25 08:37:07;;;;;;;1.55;0.70;;;17.10;99.90;;;;;;5097330;27;20061;-82
2023/07/25 08:39:33;;;;;;;3.30;0.82;;;17.60;99.90;;;;;;5089252;27;20131;-82
2023/07/25 08:41:59;;;;;;;7.30;0.90;;;17.70;99.90;;;;;;5105039;27;20517;-83
2023/07/25 08:44:26;;;;;;;3.95;0.95;;;17.70;99.90;;;;;;5097798;27;20084;-83
2023/07/25 08:46:54;;;;;;;2.72;0.63;;;18.00;99.90;;;;;;5116226;27;20042;-83
2023/07/25 08:49:24;;;;;;;4.13;0.77;;;17.30;99.90;;;;;;5102133;27;20034;-82
2023/07/25 08:51:54;;;;;;;3.10;0.75;;;17.40;99.90;;;;;;5089728;27;20075;-83
2023/07/25 08:54:45;;;;;;;4.22;0.95;;;17.80;99.90;;;;;;5106242;27;20040;-82
2023/07/25 08:57:14;;;;;;;2.15;0.70;;;18.10;99.90;;;;;;5125566;27;20404;-83
2023/07/25 08:59:40;;;;;;;3.33;1.00;;;17.70;99.90;;;;;;5082440;27;20435;-82
2023/07/25 09:02:06;;;;;;;2.60;0.82;;;17.60;99.90;;;;;;5105147;27;20112;-82
2023/07/25 09:04:35;;;;;;;3.42;1.13;;;18.10;99.90;;;;;;5110760;27;20032;-82
2023/07/25 09:07:01;;;;;;;2.03;0.88;;;18.20;99.90;;;;;;5097601;27;20131;-82
2023/07/25 09:09:26;;;;;;;3.10;0.85;;;18.00;99.90;;;;;;5110803;27;20397;-82
2023/07/25 09:11:54;;;;;;;4.78;0.93;;;18.30;99.90;;;;;;5106561;27;20035;-83
2023/07/25 09:14:19;;;;;;;3.10;0.90;;;18.40;99.90;;;;;;5118579;27;20417;-82
2023/07/25 09:16:45;;;;;;;2.47;0.90;;;18.50;99.90;;;;;;5110391;27;20096;-83
2023/07/25 09:19:11;;;;;;;3.47;0.82;;;18.80;99.90;;;;;;5100523;27;20038;-83
2023/07/25 09:21:48;;;;;;;2.97;0.90;;;18.80;99.90;;;;;;5099646;27;20035;-83
2023/07/25 09:24:14;;;;;;;2.53;1.20;;;18.60;99.90;;;;;;5093508;27;20032;-82
2023/07/25 09:26:41;;;;;;;2.63;0.73;;;18.30;99.90;;;;;;5105593;27;20039;-83
2023/07/25 09:29:07;;;;;;;2.53;0.90;;;19.00;99.90;;;;;;5110004;27;20810;-82
2023/07/25 09:31:42;;;;;;;7.07;1.15;;;18.90;99.90;;;;;;5105020;27;20039;-82
2023/07/25 09:34:08;;;;;;;2.97;0.70;;;18.40;99.90;;;;;;5085039;27;20448;-82
2023/07/25 09:36:34;;;;;;;3.00;1.13;;;17.90;99.90;;;;;;5107215;27;20043;-83
2023/07/25 09:39:01;;;;;;;2.63;0.85;;;18.30;99.90;;;;;;5107674;27;20483;-82
2023/07/25 09:41:26;;;;;;;3.35;0.70;;;18.50;99.90;;;;;;5125896;27;20041;-82
2023/07/25 09:43:52;;;;;;;2.55;0.80;;;18.40;99.90;;;;;;5091345;27;20059;-83
2023/07/25 09:46:19;;;;;;;2.10;1.00;;;18.50;99.90;;;;;;5097331;27;20406;-82
2023/07/25 09:48:54;;;;;;;4.97;1.15;;;18.20;99.90;;;;;;5133389;27;20486;-83
2023/07/25 09:51:23;;;;;;;3.45;0.93;;;17.80;99.90;;;;;;5085033;27;20032;-82
2023/07/25 09:53:54;;;;;;;3.55;0.75;;;17.80;99.90;;;;;;5093583;27;20035;-83
2023/07/25 09:56:26;;;;;;;5.05;1.00;;;17.80;99.90;;;;;;5093418;27;20038;-83
2023/07/25 09:58:52;;;;;;;3.72;0.80;;;18.00;99.90;;;;;;5090561;27;20031;-82
2023/07/25 10:01:20;;;;;;;4.97;1.40;;;18.10;99.90;;;;;;5103905;27;20378;-83
2023/07/25 10:03:52;;;;;;;2.70;1.10;;;17.90;99.90;;;;;;5104627;27;20042;-83
2023/07/25 10:06:18;;;;;;;3.08;1.08;;;17.60;99.90;;;;;;5128348;27;20043;-82
2023/07/25 10:08:44;;;;;;;4.90;1.35;;;17.50;99.90;;;;;;5085330;27;20487;-82
2023/07/25 10:11:12;;;;;;;4.75;1.08;;;17.50;99.90;;;;;;5108412;27;20075;-82
2023/07/25 10:13:40;;;;;;;2.95;1.00;;;17.40;99.90;;;;;;5109218;27;20127;-82
2023/07/25 10:16:08;;;;;;;4.53;0.98;;;17.10;99.90;;;;;;5110289;27;20118;-82
2023/07/25 10:18:34;;;;;;;4.03;0.90;;;17.00;99.90;;;;;;5093397;27;20035;-82
2023/07/25 10:21:00;;;;;;;3.72;1.10;;;16.80;99.90;;;;;;5099266;27;20454;-83
2023/07/25 10:23:34;;;;;;;2.63;0.93;;;16.90;99.90;;;;;;5117896;27;20034;-82
2023/07/25 10:26:14;;;;;;;5.00;1.17;;;17.10;99.90;;;;;;5090751;27;20054;-82
2023/07/25 10:28:40;;;;;;;6.78;1.10;;;17.40;99.90;;;;;;5090646;27;20035;-82
2023/07/25 10:31:07;;;;;;;4.03;1.70;;;17.50;99.90;;;;;;5084648;27;20034;-82
2023/07/25 10:33:39;;;;;;;4.00;1.30;;;17.60;99.90;;;;;;5115151;27;20042;-82
2023/07/25 10:36:08;;;;;;;3.20;1.10;;;17.70;99.90;;;;;;5115729;27;20253;-82
2023/07/25 10:38:36;;;;;;;3.78;0.85;;;17.90;99.90;;;;;;5110624;27;20043;-82
2023/07/25 10:41:08;;;;;;;7.50;1.63;;;19.00;99.90;;;;;;5090036;27;20048;-82
2023/07/25 10:43:46;;;;;;;7.93;1.20;;;19.00;99.90;;;;;;5098009;27;20597;-82
2023/07/25 10:46:14;;;;;;;1.20;0.77;;;18.40;99.90;;;;;;5082328;27;20072;-82
2023/07/25 10:48:47;;;;;;;6.10;1.40;;;18.20;99.90;;;;;;5098869;27;20038;-82
2023/07/25 10:51:15;;;;;;;6.50;1.63;;;17.90;99.90;;;;;;5092728;27;20043;-83
2023/07/25 10:54:00;;;;;;;5.13;1.05;;;17.70;99.90;;;;;;5095199;27;20038;-82
2023/07/25 10:56:26;;;;;;;;;;;17.80;99.90;;;;;;5093002;27;20434;-82
2023/07/25 10:59:08;;;;;;;2.72;0.88;;;17.90;99.90;;;;;;5091763;27;20002;-82
2023/07/25 11:01:47;;;;;;;4.80;1.35;;;17.90;99.90;;;;;;5120845;27;20050;-82
2023/07/25 11:04:23;;;;;;;3.83;1.20;;;18.30;99.90;;;;;;5100253;27;20114;-82
2023/07/25 11:06:50;;;;;;;2.53;0.85;;;19.10;99.90;;;;;;5104766;27;20408;-82
2023/07/25 11:09:16;;;;;;;1.73;1.00;;;19.50;99.90;;;;;;5089332;27;20138;-83
2023/07/25 11:11:44;;;;;;;2.83;1.33;;;18.50;99.90;;;;;;5090798;27;20126;-83
2023/07/25 11:14:13;;;;;;;5.03;1.25;;;18.50;99.90;;;;;;5092707;27;20118;-82
2023/07/25 11:16:43;;;;;;;4.38;1.15;;;18.10;99.90;;;;;;5103999;27;20489;-82
2023/07/25 11:19:14;;;;;;;3.20;0.98;;;18.30;99.90;;;;;;5104551;27;20414;-82
2023/07/25 11:21:43;;;;;;;3.63;1.10;;;18.40;99.90;;;;;;5104665;27;20056;-82
2023/07/25 11:24:11;;;;;;;2.72;1.00;;;18.60;99.90;;;;;;5120463;27;20358;-82
2023/07/25 11:26:37;;;;;;;2.40;1.00;;;18.20;99.90;;;;;;5092795;27;20043;-82
2023/07/25 11:29:08;;;;;;;3.42;1.42;;;18.70;99.90;;;;;;5108637;27;20039;-82
2023/07/25 11:31:36;;;;;;;4.95;0.90;;;18.70;99.90;;;;;;5093722;27;20058;-82
2023/07/25 11:34:10;;;;;;;2.17;0.82;;;18.60;99.90;;;;;;5125288;27;20199;-82
2023/07/25 11:36:37;;;;;;;7.00;0.80;;;19.20;99.90;;;;;;5097129;27;20058;-82
2023/07/25 11:39:07;;;;;;;3.13;0.90;;;18.70;99.90;;;;;;5108521;27;20050;-82
2023/07/25 11:41:41;;;;;;;2.63;0.93;;;18.60;99.90;;;;;;5134010;27;20038;-82
2023/07/25 11:44:14;;;;;;;1.90;1.10;;;18.40;99.90;;;;;;5085335;27;20043;-82
2023/07/25 11:46:52;;;;;;;3.30;0.68;;;18.20;99.90;;;;;;5102894;27;20042;-82
2023/07/25 11:49:19;;;;;;;2.63;0.85;;;18.60;99.90;;;;;;5087247;27;20057;-82
2023/07/25 11:51:46;;;;;;;3.63;0.90;;;18.90;99.90;;;;;;5107508;27;20065;-83
2023/07/25 11:54:12;;;;;;;1.75;0.68;;;18.80;99.90;;;;;;5114024;27;20113;-82
2023/07/25 11:56:38;;;;;;;4.18;1.30;;;18.70;99.90;;;;;;5111898;27;20134;-83
2023/07/25 11:59:04;;;;;;;2.25;0.82;;;18.90;99.90;;;;;;5097561;27;20492;-83
2023/07/25 12:01:33;;;;;;;2.58;1.05;;;18.50;99.90;;;;;;5101918;27;20161;-82
2023/07/25 12:04:02;;;;;;;4.15;1.00;;;18.20;99.90;;;;;;5096118;27;20088;-82
2023/07/25 12:06:30;;;;;;;2.22;0.90;;;18.30;99.90;;;;;;5105367;27;20089;-82
2023/07/25 12:09:00;;;;;;;1.52;0.60;;;18.60;99.90;;;;;;5115296;27;20482;-82
2023/07/25 12:11:26;;;;;;;1.58;1.00;;;18.80;99.90;;;;;;5109483;27;20085;-83
2023/07/25 12:13:58;;;;;;;3.53;0.85;;;18.50;99.90;;;;;;5112628;27;20126;-82
2023/07/25 12:16:34;;;;;;;2.28;0.80;;;18.20;99.90;;;;;;5132857;27;20103;-82
2023/07/25 12:19:10;;;;;;;3.08;0.90;;;18.00;99.90;;;;;;5130082;27;20442;-82
2023/07/25 12:21:38;;;;;;;3.03;0.75;;;18.20;99.90;;;;;;5104570;27;20104;-82
2023/07/25 12:24:09;;;;;;;2.92;0.95;;;18.20;99.90;;;;;;5095161;27;20035;-82
2023/07/25 12:26:45;;;;;;;2.33;0.60;;;18.40;99.90;;;;;;5107487;27;20043;-81
2023/07/25 12:29:24;;;;;;;2.28;0.40;;;18.60;99.90;;;;;;5110372;27;20035;-82
2023/07/25 12:31:51;;;;;;;2.17;0.90;;;18.80;99.90;;;;;;5095834;27;20434;-82
2023/07/25 12:34:20;;;;;;;2.60;0.88;;;19.10;99.90;;;;;;5104912;27;20052;-82
2023/07/25 12:36:50;;;;;;;2.72;0.88;;;19.00;99.90;;;;;;5100177;27;20071;-83
2023/07/25 12:39:16;;;;;;;3.00;0.90;;;19.20;99.90;;;;;;5104695;27;20047;-82
2023/07/25 12:41:45;;;;;;;2.83;0.75;;;19.80;99.90;;;;;;5084894;27;20035;-82
2023/07/25 12:44:11;;;;;;;3.55;0.57;;;20.00;99.90;;;;;;5105542;27;20055;-82